Aviation Digital Data Service (ADDS)

Output produced by METARs form (2026 UTC 20 July 2017)
found at http://www.aviationweather.gov/adds/metars/
 
METAR text: KSTL 201951Z 27014G18KT 10SM FEW050 SCT250 38/18 A3002 RMK AO2 SLP148 T03830183
Conditions at: KSTL (ST. LOUIS , MO, US) observed 1951 UTC 20 July 2017
Temperature: 38.3°C (101°F)
Dewpoint: 18.3°C (65°F) [RH = 31%]
Pressure (altimeter): 30.02 inches Hg (1016.7 mb)
[Sea-level pressure: 1014.8 mb]
Winds: from the W (270 degrees) at 16 MPH (14 knots; 7.3 m/s)
gusting to 21 MPH (18 knots; 9.4 m/s)
Visibility: 10 or more miles (16+ km)
Ceiling: at least 12,000 feet AGL
Clouds: few clouds at 5000 feet AGL
scattered clouds at 25000 feet AGL
Weather: no significant weather observed at this time